Time;durP1;ratioP1;P1;durP2;ratioP2;P2;SDS_P1;SDS_P2;PMS_P1;PMS_P2;Temp;Humidity;BMP_temperature;BMP_pressure;BME280_temperature;BME280_humidity;BME280_pressure;Samples;Min_cycle;Max_cycle;Signal;HPM_P1;HPM_P2
2021/08/18 00:00:16;;;;;;;27.50;19.45;;;;;;;;;;2062671;28;20221;-56
2021/08/18 00:01:17;;;;;;;28.88;19.73;;;;;;;;;;2064572;28;20264;-56
2021/08/18 00:02:17;;;;;;;27.40;19.15;;;;;;;;;;2065369;28;20178;-55
2021/08/18 00:03:17;;;;;;;29.08;19.65;;;;;;;;;;2065216;28;20174;-54
2021/08/18 00:04:18;;;;;;;30.60;19.52;;;;;;;;;;2065305;28;20646;-55
2021/08/18 00:05:18;;;;;;;27.92;18.52;;;;;;;;;;2062926;28;20553;-54
2021/08/18 00:06:18;;;;;;;26.60;17.70;;;;;;;;;;2056550;28;20174;-57
2021/08/18 00:07:19;;;;;;;28.52;19.00;;;;;;;;;;2056626;28;20578;-53
2021/08/18 00:08:19;;;;;;;29.23;18.95;;;;;;;;;;2057103;28;20269;-53
2021/08/18 00:09:19;;;;;;;27.73;18.77;;;;;;;;;;2065018;28;20213;-55
2021/08/18 00:10:20;;;;;;;26.55;18.02;;;;;;;;;;2060497;28;20244;-52
2021/08/18 00:11:20;;;;;;;25.80;18.27;;;;;;;;;;2059323;28;20198;-54
2021/08/18 00:12:20;;;;;;;26.67;19.25;;;;;;;;;;2065147;28;20456;-57
2021/08/18 00:13:22;;;;;;;27.15;18.98;;;;;;;;;;2061127;28;20166;-53
2021/08/18 00:14:23;;;;;;;27.02;19.23;;;;;;;;;;2057857;28;20182;-55
2021/08/18 00:15:23;;;;;;;27.33;19.25;;;;;;;;;;2064646;28;20173;-54
2021/08/18 00:16:24;;;;;;;25.85;18.67;;;;;;;;;;2060714;28;20170;-53
2021/08/18 00:17:25;;;;;;;26.13;18.30;;;;;;;;;;2057260;28;20754;-53
2021/08/18 00:18:25;;;;;;;25.38;17.38;;;;;;;;;;2055944;28;20182;-56
2021/08/18 00:19:25;;;;;;;26.08;17.90;;;;;;;;;;2057454;28;20181;-54
2021/08/18 00:20:29;;;;;;;24.38;18.13;;;;;;;;;;2063894;28;20697;-53
2021/08/18 00:21:29;;;;;;;26.30;18.95;;;;;;;;;;2062462;28;20189;-52
2021/08/18 00:22:29;;;;;;;23.60;17.63;;;;;;;;;;2059523;28;20631;-52
2021/08/18 00:23:30;;;;;;;25.23;18.65;;;;;;;;;;2061507;28;20579;-54
2021/08/18 00:24:30;;;;;;;25.98;18.55;;;;;;;;;;2063557;28;20228;-54
2021/08/18 00:25:30;;;;;;;25.65;19.40;;;;;;;;;;2068193;28;20526;-55
2021/08/18 00:26:31;;;;;;;24.67;18.63;;;;;;;;;;2071671;28;20674;-54
2021/08/18 00:27:31;;;;;;;25.10;18.98;;;;;;;;;;2063899;28;20184;-53
2021/08/18 00:28:31;;;;;;;25.05;17.73;;;;;;;;;;2063015;28;20182;-50
2021/08/18 00:29:31;;;;;;;27.50;19.52;;;;;;;;;;2056643;28;20222;-55
2021/08/18 00:30:32;;;;;;;27.83;19.48;;;;;;;;;;2063305;28;20194;-56
2021/08/18 00:31:33;;;;;;;29.40;19.70;;;;;;;;;;2057927;28;20189;-50
2021/08/18 00:32:33;;;;;;;27.45;20.10;;;;;;;;;;2064406;28;20652;-52
2021/08/18 00:33:33;;;;;;;27.75;20.33;;;;;;;;;;2060309;28;20223;-53
2021/08/18 00:34:34;;;;;;;25.50;18.95;;;;;;;;;;2064139;28;20169;-51
2021/08/18 00:35:34;;;;;;;27.38;19.48;;;;;;;;;;2057539;28;20607;-53
2021/08/18 00:36:34;;;;;;;28.58;20.27;;;;;;;;;;2064390;28;20165;-55
2021/08/18 00:37:34;;;;;;;26.17;19.88;;;;;;;;;;2056797;28;20319;-53
2021/08/18 00:38:35;;;;;;;28.08;20.20;;;;;;;;;;2056592;28;20182;-49
2021/08/18 00:39:35;;;;;;;28.98;20.95;;;;;;;;;;2064137;28;20189;-51
2021/08/18 00:40:35;;;;;;;27.90;19.67;;;;;;;;;;2062962;28;20232;-54
2021/08/18 00:41:35;;;;;;;26.52;20.85;;;;;;;;;;2064489;28;20189;-54
2021/08/18 00:42:36;;;;;;;28.88;20.65;;;;;;;;;;2064124;28;20625;-53
2021/08/18 00:43:36;;;;;;;28.52;21.02;;;;;;;;;;2058148;28;20171;-54
2021/08/18 00:44:37;;;;;;;30.77;21.60;;;;;;;;;;2063436;28;20178;-56
2021/08/18 00:45:37;;;;;;;28.27;19.73;;;;;;;;;;2063999;28;20170;-57
2021/08/18 00:46:45;;;;;;;26.42;19.60;;;;;;;;;;2064098;28;20576;-52
2021/08/18 00:47:50;;;;;;;28.83;20.65;;;;;;;;;;2063016;28;20472;-51
2021/08/18 00:48:50;;;;;;;25.63;19.48;;;;;;;;;;2063745;28;20183;-54
2021/08/18 00:49:51;;;;;;;27.15;20.58;;;;;;;;;;2064136;28;20656;-52
2021/08/18 00:50:51;;;;;;;28.90;20.27;;;;;;;;;;2064533;28;20193;-56
2021/08/18 00:51:52;;;;;;;29.80;20.45;;;;;;;;;;2064106;28;20197;-52
2021/08/18 00:52:55;;;;;;;31.10;21.55;;;;;;;;;;2064383;28;20244;-53
2021/08/18 00:53:57;;;;;;;31.77;22.08;;;;;;;;;;2062368;28;20717;-53
2021/08/18 00:54:58;;;;;;;29.80;21.55;;;;;;;;;;2064443;28;20170;-53
2021/08/18 00:55:58;;;;;;;27.63;21.20;;;;;;;;;;2063733;28;20177;-53
2021/08/18 00:57:00;;;;;;;32.75;21.33;;;;;;;;;;2060610;28;20528;-55
2021/08/18 00:58:01;;;;;;;31.42;21.73;;;;;;;;;;2063376;28;20194;-55
2021/08/18 00:59:03;;;;;;;31.00;21.65;;;;;;;;;;2061761;28;20173;-56
2021/08/18 01:00:05;;;;;;;32.67;22.15;;;;;;;;;;2060769;28;20254;-55
2021/08/18 01:01:05;;;;;;;32.47;21.23;;;;;;;;;;2059809;28;20357;-55
2021/08/18 01:02:06;;;;;;;32.55;21.77;;;;;;;;;;2064453;28;20185;-58
2021/08/18 01:03:07;;;;;;;30.08;22.13;;;;;;;;;;2064429;28;20265;-53
2021/08/18 01:04:08;;;;;;;31.90;22.38;;;;;;;;;;2063863;28;20170;-50
2021/08/18 01:05:10;;;;;;;31.23;20.98;;;;;;;;;;2060851;28;20189;-54
2021/08/18 01:06:10;;;;;;;32.45;20.15;;;;;;;;;;2053266;28;20189;-54
2021/08/18 01:07:11;;;;;;;33.40;21.52;;;;;;;;;;2064183;28;20204;-57
2021/08/18 01:08:11;;;;;;;31.77;21.67;;;;;;;;;;2063687;28;20180;-52
2021/08/18 01:09:18;;;;;;;31.77;20.98;;;;;;;;;;2064173;28;20296;-51
2021/08/18 01:10:21;;;;;;;34.20;21.45;;;;;;;;;;2063557;28;20201;-56
2021/08/18 01:11:21;;;;;;;30.45;22.55;;;;;;;;;;2064999;28;20162;-53
2021/08/18 01:12:22;;;;;;;33.17;23.73;;;;;;;;;;2062307;28;20214;-52
2021/08/18 01:13:22;;;;;;;31.48;21.25;;;;;;;;;;2064673;28;20193;-51
2021/08/18 01:14:22;;;;;;;30.33;21.45;;;;;;;;;;2062806;28;20188;-56
2021/08/18 01:15:24;;;;;;;29.92;22.33;;;;;;;;;;2061725;28;20289;-55
2021/08/18 01:16:24;;;;;;;27.90;20.42;;;;;;;;;;2063109;28;20257;-55
2021/08/18 01:17:29;;;;;;;29.17;22.15;;;;;;;;;;2066273;28;20662;-55
2021/08/18 01:18:30;;;;;;;27.00;20.10;;;;;;;;;;2064007;28;20381;-55
2021/08/18 01:19:31;;;;;;;30.33;21.70;;;;;;;;;;2060537;28;20210;-59
2021/08/18 01:20:35;;;;;;;29.25;20.88;;;;;;;;;;2061287;28;20217;-54
2021/08/18 01:21:38;;;;;;;29.90;21.38;;;;;;;;;;2058500;28;20659;-54
2021/08/18 01:22:38;;;;;;;28.15;19.63;;;;;;;;;;2065159;28;20170;-56
2021/08/18 01:23:39;;;;;;;28.02;20.48;;;;;;;;;;2064628;28;20190;-55
2021/08/18 01:24:39;;;;;;;27.73;19.98;;;;;;;;;;2065068;28;20189;-59
2021/08/18 01:25:40;;;;;;;27.52;20.63;;;;;;;;;;2065910;28;20236;-54
2021/08/18 01:26:41;;;;;;;28.42;20.20;;;;;;;;;;2059649;28;20179;-52
2021/08/18 01:27:46;;;;;;;27.20;20.42;;;;;;;;;;2064507;28;20663;-52
2021/08/18 01:28:46;;;;;;;28.45;20.50;;;;;;;;;;2063622;28;20185;-49
2021/08/18 01:29:47;;;;;;;26.08;20.13;;;;;;;;;;2065627;28;20185;-52
2021/08/18 01:30:47;;;;;;;29.20;20.33;;;;;;;;;;2066196;28;20204;-51
2021/08/18 01:31:51;;;;;;;29.58;20.02;;;;;;;;;;2065858;28;20170;-52
2021/08/18 01:32:53;;;;;;;26.70;19.58;;;;;;;;;;2066279;28;20240;-52
2021/08/18 01:33:53;;;;;;;27.48;20.60;;;;;;;;;;2063437;28;20177;-53
2021/08/18 01:34:53;;;;;;;28.13;20.58;;;;;;;;;;2066132;28;20207;-52
2021/08/18 01:35:54;;;;;;;23.17;18.35;;;;;;;;;;2064485;28;20204;-56
2021/08/18 01:36:55;;;;;;;24.02;18.77;;;;;;;;;;2065624;28;20197;-54
2021/08/18 01:37:55;;;;;;;23.65;19.58;;;;;;;;;;2064314;28;20162;-49
2021/08/18 01:39:06;;;;;;;23.58;18.38;;;;;;;;;;2065523;28;20170;-51
2021/08/18 01:40:06;;;;;;;26.02;19.58;;;;;;;;;;2063722;28;20185;-54
2021/08/18 01:41:08;;;;;;;24.05;18.70;;;;;;;;;;2065105;28;20212;-52
2021/08/18 01:42:09;;;;;;;24.23;18.27;;;;;;;;;;2058768;28;20270;-53
2021/08/18 01:43:09;;;;;;;22.70;17.83;;;;;;;;;;2062899;28;20631;-54
2021/08/18 01:44:09;;;;;;;22.50;17.63;;;;;;;;;;2064909;28;20262;-55
2021/08/18 01:45:11;;;;;;;21.48;17.52;;;;;;;;;;2064832;28;20186;-50
2021/08/18 01:46:11;;;;;;;23.25;18.48;;;;;;;;;;2063839;28;20181;-56
2021/08/18 01:47:11;;;;;;;21.92;18.05;;;;;;;;;;2066434;28;20340;-55
2021/08/18 01:48:12;;;;;;;21.75;17.58;;;;;;;;;;2067288;28;20748;-52
2021/08/18 01:49:13;;;;;;;23.52;18.90;;;;;;;;;;2064498;28;20212;-55
2021/08/18 01:50:14;;;;;;;24.90;17.80;;;;;;;;;;2064274;28;20322;-52
2021/08/18 01:51:14;;;;;;;21.13;17.27;;;;;;;;;;2064688;28;20173;-53
2021/08/18 01:52:17;;;;;;;23.02;17.13;;;;;;;;;;2063858;28;20177;-55
2021/08/18 01:53:20;;;;;;;21.38;16.27;;;;;;;;;;2065364;28;20260;-57
2021/08/18 01:54:20;;;;;;;22.83;17.58;;;;;;;;;;2065221;28;20169;-54
2021/08/18 01:55:21;;;;;;;20.70;17.10;;;;;;;;;;2065786;28;20701;-57
2021/08/18 01:56:21;;;;;;;20.92;16.80;;;;;;;;;;2066171;28;20646;-53
2021/08/18 01:57:22;;;;;;;22.13;17.35;;;;;;;;;;2060758;28;20621;-53
2021/08/18 01:58:22;;;;;;;20.27;17.15;;;;;;;;;;2058411;28;20166;-56
2021/08/18 01:59:26;;;;;;;21.58;17.30;;;;;;;;;;2064083;28;20197;-58
2021/08/18 02:01:36;;;;;;;19.25;16.02;;;;;;;;;;2076733;28;20215;-53
2021/08/18 02:02:37;;;;;;;21.15;16.55;;;;;;;;;;2081219;28;20202;-52
2021/08/18 02:03:38;;;;;;;20.45;16.50;;;;;;;;;;2074003;28;20660;-54
2021/08/18 02:04:38;;;;;;;20.10;16.73;;;;;;;;;;2073376;28;20260;-53
2021/08/18 02:05:38;;;;;;;19.60;16.35;;;;;;;;;;2081897;28;20171;-50
2021/08/18 02:06:38;;;;;;;19.98;16.95;;;;;;;;;;2081938;28;20176;-52
2021/08/18 02:07:39;;;;;;;21.30;16.67;;;;;;;;;;2081461;28;20251;-52
2021/08/18 02:08:39;;;;;;;20.50;16.65;;;;;;;;;;2081547;28;20659;-51
2021/08/18 02:09:39;;;;;;;21.60;16.85;;;;;;;;;;2081676;28;20251;-51
2021/08/18 02:10:39;;;;;;;21.98;16.48;;;;;;;;;;2080052;28;20168;-50
2021/08/18 02:11:40;;;;;;;20.08;16.25;;;;;;;;;;2065252;28;20180;-54
2021/08/18 02:12:40;;;;;;;21.08;17.10;;;;;;;;;;2065744;28;20186;-54
2021/08/18 02:13:41;;;;;;;20.20;15.68;;;;;;;;;;2070230;28;20165;-52
2021/08/18 02:14:41;;;;;;;21.63;16.75;;;;;;;;;;2072662;28;20173;-50
2021/08/18 02:15:42;;;;;;;18.92;15.77;;;;;;;;;;2068528;28;20272;-53
2021/08/18 02:16:42;;;;;;;18.42;16.35;;;;;;;;;;2066332;28;20173;-51
2021/08/18 02:17:42;;;;;;;19.10;16.10;;;;;;;;;;2058440;28;20685;-52
2021/08/18 02:18:42;;;;;;;18.00;14.70;;;;;;;;;;2064905;28;20185;-52
2021/08/18 02:19:43;;;;;;;21.08;16.50;;;;;;;;;;2072630;28;20185;-54
2021/08/18 02:20:44;;;;;;;16.88;14.40;;;;;;;;;;2073523;28;20172;-51
2021/08/18 02:21:44;;;;;;;18.48;15.18;;;;;;;;;;2072930;28;20216;-54
2021/08/18 02:22:45;;;;;;;17.80;15.32;;;;;;;;;;2072979;28;20684;-54
2021/08/18 02:23:45;;;;;;;20.02;14.70;;;;;;;;;;2071315;28;20641;-55
2021/08/18 02:24:45;;;;;;;18.95;15.63;;;;;;;;;;2071008;28;20190;-53
2021/08/18 02:25:47;;;;;;;18.88;15.85;;;;;;;;;;2073941;28;20618;-52
2021/08/18 02:26:47;;;;;;;17.15;14.70;;;;;;;;;;2061892;28;20210;-52
2021/08/18 02:27:48;;;;;;;18.23;15.38;;;;;;;;;;2069073;28;20170;-54
2021/08/18 02:28:48;;;;;;;16.98;13.98;;;;;;;;;;2061954;28;20186;-54
2021/08/18 02:29:49;;;;;;;17.17;14.93;;;;;;;;;;2053265;29;20303;-54
2021/08/18 02:30:49;;;;;;;17.85;14.38;;;;;;;;;;2070792;28;20201;-55
2021/08/18 02:31:49;;;;;;;18.15;14.48;;;;;;;;;;2081286;28;20193;-52
2021/08/18 02:32:50;;;;;;;17.85;15.55;;;;;;;;;;2076042;28;20185;-54
2021/08/18 02:33:50;;;;;;;17.02;14.02;;;;;;;;;;2072678;28;20209;-54
2021/08/18 02:34:50;;;;;;;17.90;13.82;;;;;;;;;;2058400;28;20249;-51
2021/08/18 02:35:51;;;;;;;17.85;14.75;;;;;;;;;;2071099;28;20245;-53
2021/08/18 02:36:51;;;;;;;19.30;14.98;;;;;;;;;;2075510;28;20212;-55
2021/08/18 02:37:53;;;;;;;19.80;14.77;;;;;;;;;;2071796;28;20237;-54
2021/08/18 02:38:53;;;;;;;16.40;14.32;;;;;;;;;;2069478;28;20174;-54
2021/08/18 02:39:53;;;;;;;19.00;14.80;;;;;;;;;;2070437;28;20166;-55
2021/08/18 02:40:53;;;;;;;17.50;15.27;;;;;;;;;;2074909;28;20220;-54
2021/08/18 02:41:53;;;;;;;18.48;15.75;;;;;;;;;;2079121;28;20179;-55
2021/08/18 02:42:55;;;;;;;17.10;14.73;;;;;;;;;;2078085;28;20193;-55
2021/08/18 02:43:55;;;;;;;16.52;14.55;;;;;;;;;;2069088;28;20239;-52
2021/08/18 02:44:55;;;;;;;18.00;14.73;;;;;;;;;;2067195;28;20209;-52
2021/08/18 02:45:55;;;;;;;18.00;15.20;;;;;;;;;;2078728;28;20173;-52
2021/08/18 02:46:56;;;;;;;18.45;14.15;;;;;;;;;;2077866;28;20189;-53
2021/08/18 02:47:56;;;;;;;18.00;15.10;;;;;;;;;;2077202;28;20188;-55
2021/08/18 02:48:57;;;;;;;18.60;14.75;;;;;;;;;;2075020;28;20243;-54
2021/08/18 02:49:57;;;;;;;15.45;13.82;;;;;;;;;;2078442;28;20267;-55
2021/08/18 02:50:58;;;;;;;16.65;14.90;;;;;;;;;;2079582;28;20211;-52
2021/08/18 02:51:58;;;;;;;15.95;14.10;;;;;;;;;;2077161;28;20240;-53
2021/08/18 02:52:58;;;;;;;15.80;14.10;;;;;;;;;;2079563;28;20167;-55
2021/08/18 02:53:59;;;;;;;15.55;13.93;;;;;;;;;;2079232;28;20181;-54
2021/08/18 02:54:59;;;;;;;17.98;15.02;;;;;;;;;;2079688;28;20181;-51
2021/08/18 02:55:59;;;;;;;16.80;14.25;;;;;;;;;;2070716;28;20181;-54
2021/08/18 02:56:59;;;;;;;18.35;14.65;;;;;;;;;;2070737;28;20201;-57
2021/08/18 02:57:59;;;;;;;15.63;13.70;;;;;;;;;;2076657;28;20183;-55
2021/08/18 02:59:00;;;;;;;17.20;13.75;;;;;;;;;;2075467;28;20184;-52
2021/08/18 03:00:00;;;;;;;17.15;14.63;;;;;;;;;;2073493;28;20206;-55
2021/08/18 03:01:00;;;;;;;20.02;14.80;;;;;;;;;;2067850;28;20238;-55
2021/08/18 03:02:01;;;;;;;16.10;14.40;;;;;;;;;;2071017;28;20276;-55
2021/08/18 03:03:01;;;;;;;18.67;14.77;;;;;;;;;;2077426;28;20646;-55
2021/08/18 03:04:01;;;;;;;17.85;13.98;;;;;;;;;;2074951;28;20660;-56
2021/08/18 03:05:02;;;;;;;16.63;14.15;;;;;;;;;;2075393;28;20192;-55
2021/08/18 03:06:02;;;;;;;18.55;14.32;;;;;;;;;;2079359;28;20232;-55
2021/08/18 03:07:03;;;;;;;15.77;14.00;;;;;;;;;;2078837;28;20272;-55
2021/08/18 03:08:03;;;;;;;16.58;13.88;;;;;;;;;;2074984;28;20172;-56
2021/08/18 03:09:03;;;;;;;16.50;14.23;;;;;;;;;;2078865;28;20268;-55
2021/08/18 03:10:04;;;;;;;15.88;14.18;;;;;;;;;;2077276;28;20176;-55
2021/08/18 03:11:04;;;;;;;15.27;12.75;;;;;;;;;;2079914;28;20231;-52
2021/08/18 03:12:05;;;;;;;18.20;14.35;;;;;;;;;;2079211;28;20232;-54
2021/08/18 03:13:05;;;;;;;14.98;13.30;;;;;;;;;;2079703;28;20181;-58
2021/08/18 03:14:06;;;;;;;15.10;13.30;;;;;;;;;;2077854;28;20173;-55
2021/08/18 03:15:06;;;;;;;15.85;14.10;;;;;;;;;;2076046;28;20177;-56
2021/08/18 03:16:07;;;;;;;17.23;14.40;;;;;;;;;;2076609;28;20188;-56
2021/08/18 03:17:07;;;;;;;15.35;13.75;;;;;;;;;;2075368;28;20662;-55
2021/08/18 03:18:07;;;;;;;15.60;13.15;;;;;;;;;;2074260;28;20169;-51
2021/08/18 03:19:08;;;;;;;15.95;13.65;;;;;;;;;;2073965;28;20676;-50
2021/08/18 03:20:09;;;;;;;15.85;13.25;;;;;;;;;;2074287;28;20181;-52
2021/08/18 03:21:09;;;;;;;14.00;12.50;;;;;;;;;;2069581;28;20276;-54
2021/08/18 03:22:09;;;;;;;16.33;13.30;;;;;;;;;;2061782;28;20174;-51
2021/08/18 03:23:10;;;;;;;15.13;13.18;;;;;;;;;;2064248;28;20166;-51
2021/08/18 03:24:11;;;;;;;17.92;13.65;;;;;;;;;;2067780;28;20233;-51
2021/08/18 03:25:11;;;;;;;16.40;13.07;;;;;;;;;;2057218;28;20162;-53
2021/08/18 03:26:12;;;;;;;15.20;12.40;;;;;;;;;;2066523;28;20209;-54
2021/08/18 03:27:12;;;;;;;15.15;12.68;;;;;;;;;;2079471;28;20203;-54
2021/08/18 03:28:12;;;;;;;15.57;13.43;;;;;;;;;;2078830;28;20165;-52
2021/08/18 03:29:12;;;;;;;14.00;12.60;;;;;;;;;;2078906;28;20181;-55
2021/08/18 03:30:13;;;;;;;14.50;13.00;;;;;;;;;;2078462;28;20232;-52
2021/08/18 03:31:13;;;;;;;14.57;12.38;;;;;;;;;;2069459;28;20649;-52
2021/08/18 03:32:13;;;;;;;14.80;12.20;;;;;;;;;;2066302;28;20166;-54
2021/08/18 03:33:14;;;;;;;14.18;12.75;;;;;;;;;;2069270;28;20286;-52
2021/08/18 03:34:14;;;;;;;15.40;13.27;;;;;;;;;;2072584;28;20223;-49
2021/08/18 03:35:14;;;;;;;14.95;12.85;;;;;;;;;;2067802;28;20197;-54
2021/08/18 03:36:14;;;;;;;16.58;13.15;;;;;;;;;;2065030;28;20173;-54
2021/08/18 03:37:15;;;;;;;14.45;12.95;;;;;;;;;;2071096;28;20176;-53
2021/08/18 03:38:15;;;;;;;16.80;13.82;;;;;;;;;;2072542;28;20704;-55
2021/08/18 03:39:15;;;;;;;16.45;13.77;;;;;;;;;;2072821;28;20589;-52
2021/08/18 03:40:16;;;;;;;14.35;12.77;;;;;;;;;;2068038;28;20169;-53
2021/08/18 03:41:16;;;;;;;16.02;12.93;;;;;;;;;;2071247;28;20207;-51
2021/08/18 03:42:16;;;;;;;13.43;11.57;;;;;;;;;;2073135;28;20663;-53
2021/08/18 03:43:17;;;;;;;14.82;12.85;;;;;;;;;;2060339;28;20167;-52
2021/08/18 03:44:17;;;;;;;14.50;12.38;;;;;;;;;;2056353;28;20174;-52
2021/08/18 03:45:17;;;;;;;14.10;12.65;;;;;;;;;;2062553;28;20168;-52
2021/08/18 03:46:17;;;;;;;14.73;12.43;;;;;;;;;;2064165;28;20197;-54
2021/08/18 03:47:18;;;;;;;14.30;12.40;;;;;;;;;;2064132;28;20189;-55
2021/08/18 03:48:18;;;;;;;13.10;11.80;;;;;;;;;;2063487;28;20257;-56
2021/08/18 03:49:18;;;;;;;13.43;12.02;;;;;;;;;;2073143;28;20208;-53
2021/08/18 03:50:19;;;;;;;13.30;11.88;;;;;;;;;;2074346;28;20173;-52
2021/08/18 03:51:19;;;;;;;14.13;12.43;;;;;;;;;;2073944;28;20199;-50
2021/08/18 03:52:19;;;;;;;14.02;12.05;;;;;;;;;;2073643;28;20192;-53
2021/08/18 03:53:19;;;;;;;14.23;12.20;;;;;;;;;;2061601;28;20170;-51
2021/08/18 03:54:20;;;;;;;13.43;12.02;;;;;;;;;;2066314;28;20177;-53
2021/08/18 03:55:20;;;;;;;13.77;12.35;;;;;;;;;;2074265;28;20554;-54
2021/08/18 03:56:20;;;;;;;14.48;12.75;;;;;;;;;;2070858;28;20176;-53
2021/08/18 03:57:20;;;;;;;13.75;11.68;;;;;;;;;;2065808;28;20221;-51
2021/08/18 03:58:20;;;;;;;14.70;12.23;;;;;;;;;;2065055;28;20221;-56
2021/08/18 03:59:21;;;;;;;14.52;12.20;;;;;;;;;;2059426;28;20190;-52
2021/08/18 04:00:21;;;;;;;12.35;11.15;;;;;;;;;;2055631;28;20189;-53
2021/08/18 04:01:21;;;;;;;13.27;11.88;;;;;;;;;;2056115;28;20238;-51
2021/08/18 04:02:22;;;;;;;15.43;12.13;;;;;;;;;;2062973;28;20219;-52
2021/08/18 04:03:22;;;;;;;12.80;11.05;;;;;;;;;;2071970;28;20692;-51
2021/08/18 04:04:22;;;;;;;18.08;11.68;;;;;;;;;;2073374;28;20184;-51
2021/08/18 04:05:23;;;;;;;12.18;11.00;;;;;;;;;;2072796;28;20192;-57
2021/08/18 04:06:23;;;;;;;13.90;12.13;;;;;;;;;;2072776;28;20211;-54
2021/08/18 04:07:23;;;;;;;13.82;12.40;;;;;;;;;;2073217;28;20164;-53
2021/08/18 04:08:23;;;;;;;14.38;11.80;;;;;;;;;;2072254;28;20264;-54
2021/08/18 04:09:23;;;;;;;13.68;12.00;;;;;;;;;;2072993;28;20204;-52
2021/08/18 04:10:24;;;;;;;13.02;11.50;;;;;;;;;;2063884;28;20185;-54
2021/08/18 04:11:24;;;;;;;15.27;11.93;;;;;;;;;;2063705;28;20216;-56
2021/08/18 04:12:25;;;;;;;13.85;11.98;;;;;;;;;;2064181;28;20182;-52
2021/08/18 04:13:25;;;;;;;12.85;11.52;;;;;;;;;;2061788;28;20189;-55
2021/08/18 04:14:25;;;;;;;13.13;11.70;;;;;;;;;;2059569;28;20174;-55
2021/08/18 04:15:27;;;;;;;13.70;11.32;;;;;;;;;;2070222;28;20177;-53
2021/08/18 04:16:27;;;;;;;13.73;11.60;;;;;;;;;;2072517;28;20184;-54
2021/08/18 04:17:27;;;;;;;15.30;12.32;;;;;;;;;;2068919;28;20169;-54
2021/08/18 04:18:28;;;;;;;13.95;11.93;;;;;;;;;;2072809;28;20173;-53
2021/08/18 04:19:28;;;;;;;13.18;11.40;;;;;;;;;;2072440;28;20185;-53
2021/08/18 04:20:28;;;;;;;13.75;12.07;;;;;;;;;;2072585;28;20240;-52
2021/08/18 04:21:28;;;;;;;15.85;11.10;;;;;;;;;;2072515;28;20195;-53
2021/08/18 04:22:29;;;;;;;14.07;11.93;;;;;;;;;;2073030;28;20180;-53
2021/08/18 04:23:29;;;;;;;14.18;11.30;;;;;;;;;;2071907;28;20177;-52
2021/08/18 04:24:29;;;;;;;14.23;11.85;;;;;;;;;;2072604;28;20177;-54
2021/08/18 04:25:30;;;;;;;13.57;12.20;;;;;;;;;;2058628;28;20261;-56
2021/08/18 04:26:30;;;;;;;14.20;11.13;;;;;;;;;;2064552;28;20177;-54
2021/08/18 04:27:30;;;;;;;14.60;12.13;;;;;;;;;;2064456;28;20165;-56
2021/08/18 04:28:31;;;;;;;13.52;12.23;;;;;;;;;;2063526;28;20186;-54
2021/08/18 04:29:31;;;;;;;13.70;11.70;;;;;;;;;;2064691;28;20224;-53
2021/08/18 04:30:31;;;;;;;13.60;11.52;;;;;;;;;;2071283;28;20161;-54
2021/08/18 04:31:31;;;;;;;13.90;12.50;;;;;;;;;;2066223;28;20192;-55
2021/08/18 04:32:32;;;;;;;12.88;11.25;;;;;;;;;;2065182;28;20184;-53
2021/08/18 04:33:32;;;;;;;14.63;11.52;;;;;;;;;;2066742;28;20641;-53
2021/08/18 04:34:33;;;;;;;13.13;11.05;;;;;;;;;;2073203;28;20177;-56
2021/08/18 04:35:33;;;;;;;13.25;11.65;;;;;;;;;;2073376;28;20161;-56
2021/08/18 04:36:33;;;;;;;14.18;12.10;;;;;;;;;;2073236;28;20215;-53
2021/08/18 04:37:35;;;;;;;13.40;11.93;;;;;;;;;;2073464;28;20163;-54
2021/08/18 04:38:35;;;;;;;12.63;11.32;;;;;;;;;;2072604;28;20165;-52
2021/08/18 04:39:36;;;;;;;14.55;11.02;;;;;;;;;;2073244;28;20227;-54
2021/08/18 04:40:36;;;;;;;13.02;11.73;;;;;;;;;;2072604;28;20180;-53
2021/08/18 04:41:36;;;;;;;13.73;11.95;;;;;;;;;;2065879;28;20660;-52
2021/08/18 04:42:38;;;;;;;12.93;11.63;;;;;;;;;;2063832;28;20213;-52
2021/08/18 04:43:38;;;;;;;12.63;10.88;;;;;;;;;;2063740;28;20642;-55
2021/08/18 04:44:38;;;;;;;14.43;11.63;;;;;;;;;;2073020;28;20211;-52
2021/08/18 04:45:39;;;;;;;13.30;11.68;;;;;;;;;;2072006;28;20183;-53
2021/08/18 04:46:39;;;;;;;12.23;11.00;;;;;;;;;;2065956;28;20170;-55
2021/08/18 04:47:39;;;;;;;13.90;12.50;;;;;;;;;;2066937;28;20642;-54
2021/08/18 04:48:40;;;;;;;13.40;11.93;;;;;;;;;;2066311;28;20209;-54
2021/08/18 04:49:40;;;;;;;15.27;11.90;;;;;;;;;;2066637;28;20232;-53
2021/08/18 04:50:40;;;;;;;14.50;12.52;;;;;;;;;;2066586;28;20173;-52
2021/08/18 04:51:40;;;;;;;13.77;11.80;;;;;;;;;;2074635;28;20216;-55
2021/08/18 04:52:41;;;;;;;14.15;11.95;;;;;;;;;;2074870;28;20851;-52
2021/08/18 04:53:41;;;;;;;13.10;11.80;;;;;;;;;;2070353;28;20589;-52
2021/08/18 04:54:41;;;;;;;13.55;11.85;;;;;;;;;;2075431;28;20232;-53
2021/08/18 04:55:42;;;;;;;12.80;11.35;;;;;;;;;;2075368;28;20177;-52
2021/08/18 04:56:42;;;;;;;14.50;13.07;;;;;;;;;;2076040;28;20173;-52
2021/08/18 04:57:43;;;;;;;16.00;13.05;;;;;;;;;;2075773;28;20625;-54
2021/08/18 04:58:43;;;;;;;15.82;11.85;;;;;;;;;;2070994;28;20249;-50
2021/08/18 04:59:43;;;;;;;12.85;11.55;;;;;;;;;;2067421;28;20276;-50
2021/08/18 05:00:43;;;;;;;14.65;12.38;;;;;;;;;;2067606;28;20189;-53
2021/08/18 05:01:44;;;;;;;13.48;11.63;;;;;;;;;;2075694;28;20161;-53
2021/08/18 05:02:45;;;;;;;14.55;12.00;;;;;;;;;;2075071;28;20260;-51
2021/08/18 05:03:46;;;;;;;14.55;11.50;;;;;;;;;;2070004;28;20280;-55
2021/08/18 05:04:46;;;;;;;15.25;11.57;;;;;;;;;;2058244;28;20217;-54
2021/08/18 05:05:47;;;;;;;13.70;11.93;;;;;;;;;;2058372;28;20222;-54
2021/08/18 05:06:47;;;;;;;17.05;10.50;;;;;;;;;;2067011;28;20269;-53
2021/08/18 05:07:47;;;;;;;13.25;10.70;;;;;;;;;;2066433;28;20177;-54
2021/08/18 05:08:47;;;;;;;13.73;11.40;;;;;;;;;;2070848;28;20653;-53
2021/08/18 05:09:47;;;;;;;12.68;11.27;;;;;;;;;;2066015;28;20200;-52
2021/08/18 05:10:48;;;;;;;12.20;10.77;;;;;;;;;;2064974;28;20666;-51
2021/08/18 05:11:48;;;;;;;12.70;11.32;;;;;;;;;;2066433;28;20197;-54
2021/08/18 05:12:48;;;;;;;13.27;11.85;;;;;;;;;;2069971;28;20709;-55
2021/08/18 05:13:48;;;;;;;13.50;11.40;;;;;;;;;;2074316;28;20215;-52
2021/08/18 05:14:49;;;;;;;12.30;9.48;;;;;;;;;;2068841;28;20185;-55
2021/08/18 05:15:49;;;;;;;10.98;9.65;;;;;;;;;;2066295;28;20177;-55
2021/08/18 05:16:49;;;;;;;9.70;8.68;;;;;;;;;;2071350;28;20641;-54
2021/08/18 05:17:50;;;;;;;9.18;8.27;;;;;;;;;;2073191;28;21724;-55
2021/08/18 05:18:50;;;;;;;9.63;8.68;;;;;;;;;;2069199;28;20274;-54
2021/08/18 05:19:50;;;;;;;10.38;8.93;;;;;;;;;;2074125;28;20208;-55
2021/08/18 05:20:51;;;;;;;11.93;9.35;;;;;;;;;;2068218;28;20192;-53
2021/08/18 05:21:51;;;;;;;8.52;7.55;;;;;;;;;;2074424;28;20173;-54
2021/08/18 05:22:51;;;;;;;9.02;8.13;;;;;;;;;;2064108;28;20701;-51
2021/08/18 05:23:51;;;;;;;9.05;7.78;;;;;;;;;;2057192;28;20240;-55
2021/08/18 05:24:52;;;;;;;9.63;7.95;;;;;;;;;;2061037;28;20186;-54
2021/08/18 05:25:52;;;;;;;8.13;7.32;;;;;;;;;;2071510;28;20207;-55
2021/08/18 05:26:52;;;;;;;9.07;7.78;;;;;;;;;;2070715;28;20174;-55
2021/08/18 05:27:52;;;;;;;12.80;8.20;;;;;;;;;;2069611;28;20196;-57
2021/08/18 05:28:52;;;;;;;8.30;7.38;;;;;;;;;;2073422;28;20184;-55
2021/08/18 05:29:53;;;;;;;8.60;7.80;;;;;;;;;;2073420;28;20211;-54
2021/08/18 05:30:53;;;;;;;9.98;8.90;;;;;;;;;;2073217;28;20182;-56
2021/08/18 05:31:53;;;;;;;8.70;7.90;;;;;;;;;;2068774;28;20183;-55
2021/08/18 05:32:53;;;;;;;9.85;8.85;;;;;;;;;;2071072;28;21117;-54
2021/08/18 05:33:54;;;;;;;13.25;8.55;;;;;;;;;;2073351;28;20649;-56
2021/08/18 05:34:54;;;;;;;10.07;8.75;;;;;;;;;;2074784;28;20629;-62
2021/08/18 05:35:56;;;;;;;10.52;9.35;;;;;;;;;;2074609;28;20602;-53
2021/08/18 05:36:56;;;;;;;9.60;8.57;;;;;;;;;;2066382;28;20174;-56
2021/08/18 05:37:57;;;;;;;9.60;8.70;;;;;;;;;;2058950;28;20167;-55
2021/08/18 05:38:57;;;;;;;11.25;8.70;;;;;;;;;;2069487;28;20740;-52
2021/08/18 05:39:57;;;;;;;9.68;8.77;;;;;;;;;;2073782;28;20648;-52
2021/08/18 05:40:57;;;;;;;7.75;7.05;;;;;;;;;;2065013;28;20397;-55
2021/08/18 05:41:58;;;;;;;8.70;7.88;;;;;;;;;;2072470;28;20180;-53
2021/08/18 05:42:58;;;;;;;9.02;8.23;;;;;;;;;;2077786;28;20199;-55
2021/08/18 05:43:58;;;;;;;9.82;8.85;;;;;;;;;;2078573;28;20169;-52
2021/08/18 05:44:59;;;;;;;9.15;8.35;;;;;;;;;;2073762;28;20556;-55
2021/08/18 05:45:59;;;;;;;9.48;8.48;;;;;;;;;;2081087;28;20641;-49
2021/08/18 05:47:00;;;;;;;8.80;8.00;;;;;;;;;;2081866;28;20215;-51
2021/08/18 05:48:00;;;;;;;8.98;7.82;;;;;;;;;;2067668;28;20205;-55
2021/08/18 05:49:00;;;;;;;9.60;8.05;;;;;;;;;;2070214;28;20195;-50
2021/08/18 05:50:00;;;;;;;9.75;7.35;;;;;;;;;;2073796;28;20704;-51
2021/08/18 05:51:01;;;;;;;8.45;7.30;;;;;;;;;;2073314;28;20208;-51
2021/08/18 05:52:01;;;;;;;9.50;8.15;;;;;;;;;;2056422;28;20241;-54
2021/08/18 05:53:01;;;;;;;8.15;7.35;;;;;;;;;;2056735;28;20261;-54
2021/08/18 05:54:02;;;;;;;9.45;8.07;;;;;;;;;;2073970;28;20606;-53